createdAt,value
2017-08-31T18:48:10.114Z,26.1
2017-08-31T18:53:15.161Z,25.9
2017-08-31T18:58:21.100Z,25.9
2017-08-31T19:03:26.167Z,25.9
2017-08-31T19:08:31.910Z,25.9
2017-08-31T19:13:36.999Z,26
2017-08-31T19:18:42.411Z,26
2017-08-31T19:23:48.165Z,26.1
2017-08-31T19:28:53.598Z,26.1
2017-08-31T19:33:58.341Z,26.1
2017-08-31T19:39:03.755Z,26.1
2017-08-31T19:44:08.505Z,26.1
2017-08-31T19:49:14.280Z,26
2017-08-31T19:54:19.057Z,26
2017-08-31T19:59:24.554Z,25.9
2017-08-31T20:04:30.040Z,25.8
2017-08-31T20:09:35.183Z,25.8
2017-08-31T20:14:40.349Z,25.7
2017-08-31T20:19:45.714Z,25.7
2017-08-31T20:24:51.578Z,25.6
2017-08-31T20:29:56.720Z,25.6
2017-08-31T20:35:01.545Z,25.7
2017-08-31T20:40:06.977Z,25.8
2017-08-31T20:45:11.739Z,26
2017-08-31T20:50:17.221Z,26.1
2017-08-31T20:55:22.333Z,26.2
2017-08-31T21:00:28.428Z,26.3
2017-08-31T21:05:33.850Z,26.4
2017-08-31T21:10:39.272Z,26.5
2017-08-31T21:15:45.034Z,26.6
2017-08-31T21:20:50.464Z,26.6
2017-08-31T21:25:55.214Z,26.6
2017-08-31T21:31:00.667Z,26.7
2017-08-31T21:36:05.750Z,26.7
2017-08-31T21:41:11.506Z,26.7
2017-08-31T21:46:17.267Z,26.7
2017-08-31T21:51:21.345Z,26.7
2017-08-31T21:56:26.100Z,26.7
2017-08-31T22:01:31.873Z,26.7
2017-08-31T22:06:36.969Z,26.7
2017-08-31T22:11:42.389Z,26.7
2017-08-31T22:16:47.858Z,26.7
2017-08-31T22:21:53.284Z,26.7
2017-08-31T22:26:58.718Z,26.7
2017-08-31T22:32:04.138Z,26.7
2017-08-31T22:37:10.236Z,26.7
2017-08-31T22:42:15.649Z,26.7
2017-08-31T22:47:21.734Z,26.7
2017-08-31T22:52:27.141Z,26.7
2017-08-31T22:57:33.227Z,26.7
2017-08-31T23:02:38.973Z,26.7
2017-08-31T23:07:44.725Z,26.7
2017-08-31T23:12:50.468Z,26.7
2017-08-31T23:17:55.542Z,26.7
2017-08-31T23:23:00.966Z,26.7
2017-08-31T23:28:06.393Z,26.7
2017-08-31T23:33:11.471Z,26.7
2017-08-31T23:38:17.548Z,26.7
2017-08-31T23:43:22.956Z,26.7
2017-08-31T23:48:28.383Z,26.7
2017-08-31T23:53:33.813Z,26.7
2017-08-31T23:58:39.575Z,26.6
